Terminal Aerodrome Forecast
Issued by NWS Wichita, KS

Home | Current Version | Previous Version | Text Only | Print | Product List | Glossary On
Versions: 1 2 3 4 5 6 7 8 9 10 11 12 13 14 15 16 17 18 19 20 21 22 23 24 25
000
FTUS43 KICT 221120
TAFICT
TAF
KICT 221120Z 2212/2312 35013KT P6SM OVC050
     FM221600 34017KT P6SM SCT050 BKN080
     FM221800 33017G22KT P6SM SCT090 BKN250
     FM230200 32007KT P6SM SKC=

USA.gov is the U.S. government's official web portal to all federal, state and local government web resources and services.